RAF Kinloss

Airport
ICAO code: 
EGQK
Summary
ICAO Region: 
EUR
Territory: 
Location: 
FRAF Kinloss, Scotland, United Kingdom,
Elevation: 
22 ft
Coordinates: 
Aerial View: 
57° 38' 57.836" N, 3° 33' 38.304" W
Metar
Observation
EGQK 050750Z AUTO 30010KT 9999 BKN036/// 05/01 Q1013
Station
Kinloss
Date/Time
2021-12-05 07:50:00
Wind direction
300°
Wind speed
10 kts
Lowest cloud amount
broken clouds
Temperature
5°C
Dew point
1°C
Humidity
75%
QNH
1013 hPa
Weather condition
n/a

Description

Military (Royal Air Force) airfield.

Climatology

Temperate Marine climate/Oceanic climate (Köppen climate classification Cfb). Moderately cool summer and comparatively warm winter with a temperature range of only 14°C. Prevailing south-westerly winds from the Atlantic Ocean.

Runways

Designator Length Width Surface Rops
8/26 2311 46 ASP Yes/Yes
Airport map: 
Aerial View: 

Accidents and Serious Incidents at or in the vicinity of EGQK

SKYbrary Partners:

Safety knowledge contributed by: